KUKT/UKT METAR and TAF weather

Enter ICAO airport designator
Station Type Date Time Source
KUKT METAR 2021/05/15 23:15 UTC NOAA

KUKT 152315Z AUTO 00000KT 10SM CLR 18/07 A3022 RMK A01


Station Type Date Time Source
KUKT Decoded METAR 2021/05/15 23:15 UTC NOAA

Quakertown, Quakertown Airport, PA, United States (KUKT) 40-26-06N 075-22-54W
May 15, 2021 - 07:15 PM EDT / 2021.05.15 2315 UTC
Wind: Calm:0
Visibility: 10 mile(s):0
Sky conditions: clear
Temperature: 64 F (18 C)
Dew Point: 44 F (7 C)
Relative Humidity: 48%
Pressure (altimeter): 30.22 in. Hg (1023 hPa)
ob: KUKT 152315Z AUTO 00000KT 10SM CLR 18/07 A3022 RMK A01
cycle: 23

Station Type Date Time Source
KUKT TAF UTC NOAA

Error!

Example: see airport list